Time;durP1;ratioP1;P1;durP2;ratioP2;P2;SDS_P1;SDS_P2;PMS_P1;PMS_P2;Temp;Humidity;BMP_temperature;BMP_pressure;BME280_temperature;BME280_humidity;BME280_pressure;Samples;Min_cycle;Max_cycle;Signal;HPM_P1;HPM_P2
2023/04/29 00:01:06;;;;;;;;;;;;;;;;;;5099757;28;20166;-82
2023/04/29 00:03:33;;;;;;;;;;;;;;;;;;5082771;28;20019;-82
2023/04/29 00:06:00;;;;;;;;;;;;;;;;;;5098377;28;20433;-80
2023/04/29 00:08:29;;;;;;;;;;;12.10;99.90;;;;;;5079551;28;19929;-78
2023/04/29 00:10:57;;;;;;;;;;;12.00;99.90;;;;;;5097427;28;19927;-80
2023/04/29 00:13:24;;;;;;;;;;;12.00;99.90;;;;;;5079149;28;20031;-80
2023/04/29 00:15:52;;;;;;;;;;;;;;;;;;5079985;28;20341;-80
2023/04/29 00:18:19;;;;;;;;;;;;;;;;;;5075773;28;20390;-80
2023/04/29 00:20:49;;;;;;;;;;;11.80;99.90;;;;;;5084776;28;19928;-82
2023/04/29 00:23:16;;;;;;;;;;;;;;;;;;5079552;28;19932;-81
2023/04/29 00:25:43;;;;;;;;;;;;;;;;;;5078887;28;20005;-80
2023/04/29 00:28:11;;;;;;;;;;;;;;;;;;5078294;28;20145;-81
2023/04/29 00:30:38;;;;;;;;;;;;;;;;;;5088212;28;19940;-80
2023/04/29 00:33:05;;;;;;;;;;;;;;;;;;5074267;28;19931;-81
2023/04/29 00:35:33;;;;;;;;;;;;;;;;;;5074595;28;19934;-81
2023/04/29 00:38:00;;;;;;;;;;;;;;;;;;5075128;28;19928;-80
2023/04/29 00:40:28;;;;;;;;;;;;;;;;;;5061810;28;20269;-81
2023/04/29 00:42:56;;;;;;;;;;;11.60;99.90;;;;;;5076210;28;19924;-82
2023/04/29 00:45:23;;;;;;;;;;;11.50;99.90;;;;;;5078334;28;19946;-81
2023/04/29 00:47:50;;;;;;;;;;;11.50;99.90;;;;;;5097242;28;19931;-82
2023/04/29 00:50:17;;;;;;;;;;;11.50;99.90;;;;;;5079911;28;19934;-82
2023/04/29 00:52:44;;;;;;;;;;;11.40;99.90;;;;;;5083903;28;19974;-81
2023/04/29 00:55:12;;;;;;;;;;;;;;;;;;5089439;28;19928;-81
2023/04/29 00:57:40;;;;;;;;;;;11.50;99.90;;;;;;5096147;28;19963;-81
2023/04/29 01:00:08;;;;;;;;;;;;;;;;;;5087037;28;19928;-81
2023/04/29 01:02:35;;;;;;;;;;;;;;;;;;5078553;28;20030;-81
2023/04/29 01:05:03;;;;;;;;;;;;;;;;;;5076365;28;19932;-82
2023/04/29 01:07:30;;;;;;;;;;;;;;;;;;5078363;28;20006;-81
2023/04/29 01:09:57;;;;;;;;;;;;;;;;;;5097460;28;20500;-81
2023/04/29 01:12:24;;;;;;;;;;;;;;;;;;5097031;28;19928;-82
2023/04/29 01:14:58;;;;;;;;;;;11.40;99.90;;;;;;5094914;28;19928;-82
2023/04/29 01:17:27;;;;;;;;;;;11.40;99.90;;;;;;5094864;28;19981;-82
2023/04/29 01:19:54;;;;;;;;;;;;;;;;;;5095639;28;19935;-82
2023/04/29 01:22:22;;;;;;;;;;;;;;;;;;5094712;28;20023;-82
2023/04/29 01:24:50;;;;;;;;;;;;;;;;;;5095129;28;19935;-80
2023/04/29 01:27:19;;;;;;;;;;;;;;;;;;5094112;28;19939;-82
2023/04/29 01:29:49;;;;;;;;;;;;;;;;;;5085028;28;19971;-81
2023/04/29 01:32:17;;;;;;;;;;;;;;;;;;5078220;28;20015;-81
2023/04/29 01:34:44;;;;;;;;;;;;;;;;;;5065325;28;20059;-82
2023/04/29 01:37:18;;;;;;;;;;;11.10;99.90;;;;;;5075534;28;19931;-82
2023/04/29 01:39:53;;;;;;;;;;;11.10;99.90;;;;;;5084356;28;20432;-81
2023/04/29 01:42:20;;;;;;;;;;;;;;;;;;5080153;28;20315;-80
2023/04/29 01:44:47;;;;;;;;;;;;;;;;;;5073370;28;20402;-80
2023/04/29 01:47:15;;;;;;;;;;;;;;;;;;5076683;28;19924;-79
2023/04/29 01:49:46;;;;;;;;;;;;;;;;;;5076995;28;19924;-81
2023/04/29 01:52:13;;;;;;;;;;;;;;;;;;5094120;28;19928;-80
2023/04/29 01:54:43;;;;;;;;;;;;;;;;;;5076582;28;19951;-80
2023/04/29 01:57:11;;;;;;;;;;;;;;;;;;5076252;28;19928;-81
2023/04/29 01:59:53;;;;;;;;;;;;;;;;;;5083671;28;20701;-80
2023/04/29 02:02:40;;;;;;;;;;;;;;;;;;5095612;28;20081;-80
2023/04/29 02:05:18;;;;;;;;;;;;;;;;;;5077929;28;19924;-80
2023/04/29 02:07:53;;;;;;;;;;;;;;;;;;5077821;28;20667;-79
2023/04/29 02:10:20;;;;;;;;;;;;;;;;;;5076150;28;20006;-81
2023/04/29 02:15:25;;;;;;;;;;;;;;;;;;5073305;28;19929;-82
2023/04/29 02:17:52;;;;;;;;;;;;;;;;;;5047475;28;20373;-78
2023/04/29 02:20:21;;;;;;;;;;;10.50;99.90;;;;;;5042274;28;19928;-77
2023/04/29 02:22:49;;;;;;;;;;;;;;;;;;5048636;28;20483;-78
2023/04/29 02:25:16;;;;;;;;;;;;;;;;;;5059920;28;19928;-77
2023/04/29 02:27:43;;;;;;;;;;;10.50;99.90;;;;;;5049094;28;20145;-77
2023/04/29 02:30:10;;;;;;;;;;;10.50;99.90;;;;;;5044038;28;20407;-78
2023/04/29 02:32:38;;;;;;;;;;;10.50;99.90;;;;;;5030870;28;20305;-78
2023/04/29 02:35:05;;;;;;;;;;;;;;;;;;5047551;28;19925;-78
2023/04/29 02:37:32;;;;;;;;;;;;;;;;;;5048097;28;20427;-81
2023/04/29 02:40:01;;;;;;;;;;;10.50;99.90;;;;;;5049544;28;19928;-77
2023/04/29 02:42:28;;;;;;;;;;;;;;;;;;5059484;28;19929;-78
2023/04/29 02:44:54;;;;;;;;;;;10.50;99.90;;;;;;5053442;28;20401;-78
2023/04/29 02:47:22;;;;;;;;;;;;;;;;;;5041918;28;19929;-81
2023/04/29 02:49:48;;;;;;;;;;;10.50;99.90;;;;;;5065558;28;19924;-78
2023/04/29 02:52:17;;;;;;;;;;;;;;;;;;5071127;28;20367;-79
2023/04/29 02:54:45;;;;;;;;;;;;;;;;;;5052250;28;20336;-78
2023/04/29 02:57:12;;;;;;;;;;;;;;;;;;5049234;28;19928;-76
2023/04/29 02:59:39;;;;;;;;;;;;;;;;;;5041433;28;19928;-76
2023/04/29 03:02:06;;;;;;;;;;;;;;;;;;5044329;28;20033;-76
2023/04/29 03:04:33;;;;;;;;;;;;;;;;;;5048479;28;20297;-77
2023/04/29 03:07:00;;;;;;;;;;;;;;;;;;5049811;28;19932;-76
2023/04/29 03:09:27;;;;;;;;;;;;;;;;;;5049220;28;20418;-76
2023/04/29 03:11:55;;;;;;;;;;;;;;;;;;5057169;28;19977;-77
2023/04/29 03:14:22;;;;;;;;;;;;;;;;;;5043916;28;20494;-76
2023/04/29 03:16:49;;;;;;;;;;;;;;;;;;5039762;28;19935;-76
2023/04/29 03:19:16;;;;;;;;;;;;;;;;;;5030547;28;19928;-76
2023/04/29 03:21:44;;;;;;;;;;;;;;;;;;5056624;28;19965;-77
2023/04/29 03:24:11;;;;;;;;;;;;;;;;;;5034949;28;20023;-76
2023/04/29 03:26:41;;;;;;;;;;;10.30;99.90;;;;;;5061393;28;19970;-77
2023/04/29 03:29:08;;;;;;;;;;;;;;;;;;5050406;28;19925;-76
2023/04/29 03:31:35;;;;;;;;;;;;;;;;;;5064078;28;20110;-74
2023/04/29 03:34:03;;;;;;;;;;;;;;;;;;5070651;28;19936;-74
2023/04/29 03:36:32;;;;;;;;;;;;;;;;;;5050597;28;20111;-76
2023/04/29 03:39:06;;;;;;;;;;;;;;;;;;5051478;28;20014;-77
2023/04/29 03:41:33;;;;;;;;;;;;;;;;;;5066969;28;20305;-74
2023/04/29 03:44:00;;;;;;;;;;;;;;;;;;5050824;28;19932;-75
2023/04/29 03:46:29;;;;;;;;;;;10.20;99.90;;;;;;5053101;28;20251;-74
2023/04/29 03:48:57;;;;;;;;;;;;;;;;;;5052862;28;20224;-75
2023/04/29 03:51:24;;;;;;;;;;;;;;;;;;5050219;28;20127;-76
2023/04/29 03:53:55;;;;;;;;;;;;;;;;;;5041727;28;19925;-74
2023/04/29 03:56:24;;;;;;;;;;;;;;;;;;5032335;28;19928;-74
2023/04/29 03:58:51;;;;;;;;;;;;;;;;;;5068515;28;19932;-75
2023/04/29 04:01:19;;;;;;;;;;;;;;;;;;5037919;28;19943;-75
2023/04/29 04:03:47;;;;;;;;;;;;;;;;;;5045964;28;19924;-75
2023/04/29 04:06:15;;;;;;;;;;;10.10;99.90;;;;;;5045554;28;19935;-75
2023/04/29 04:08:42;;;;;;;;;;;10.10;99.90;;;;;;5052197;28;20283;-75
2023/04/29 04:11:16;;;;;;;;;;;10.10;99.90;;;;;;5054056;28;19978;-75
2023/04/29 04:13:46;;;;;;;;;;;;;;;;;;5048158;28;19924;-75
2023/04/29 04:16:14;;;;;;;;;;;;;;;;;;5062429;28;19932;-75
2023/04/29 04:18:41;;;;;;;;;;;;;;;;;;5053329;28;19935;-75
2023/04/29 04:21:08;;;;;;;;;;;;;;;;;;5049334;28;20413;-75
2023/04/29 04:23:39;;;;;;;;;;;10.10;99.90;;;;;;5068001;28;19929;-75
2023/04/29 04:26:07;;;;;;;;;;;10.10;99.90;;;;;;5066419;28;20393;-75
2023/04/29 04:28:55;;;;;;;;;;;;;;;;;;5049311;28;19924;-76
2023/04/29 04:31:40;;;;;;;;;;;10.10;99.90;;;;;;5058499;28;19936;-75
2023/04/29 04:34:08;;;;;;;;;;;;;;;;;;5045981;28;19991;-75
2023/04/29 04:36:36;;;;;;;;;;;;;;;;;;5062721;28;20451;-76
2023/04/29 04:39:03;;;;;;;;;;;;;;;;;;5053025;28;19928;-76
2023/04/29 04:41:33;;;;;;;;;;;10.10;99.90;;;;;;5052320;28;19933;-75
2023/04/29 04:44:02;;;;;;;;;;;;;;;;;;5046783;28;20020;-75
2023/04/29 04:46:41;;;;;;;;;;;;;;;;;;5034750;28;19978;-75
2023/04/29 04:49:18;;;;;;;;;;;;;;;;;;5031098;28;19929;-75
2023/04/29 04:51:52;;;;;;;;;;;;;;;;;;5035975;28;19936;-75
2023/04/29 04:54:19;;;;;;;;;;;;;;;;;;5051116;28;19935;-75
2023/04/29 04:56:51;;;;;;;;;;;;;;;;;;5051294;28;19935;-75
2023/04/29 04:59:18;;;;;;;;;;;;;;;;;;5062407;28;19948;-76
2023/04/29 05:01:45;;;;;;;;;;;;;;;;;;5032628;28;19929;-75
2023/04/29 05:04:12;;;;;;;;;;;;;;;;;;5045883;28;19948;-75
2023/04/29 05:06:39;;;;;;;;;;;;;;;;;;5057119;28;20023;-75
2023/04/29 05:09:06;;;;;;;;;;;;;;;;;;5033472;28;19929;-76
2023/04/29 05:11:33;;;;;;;;;;;;;;;;;;5050970;28;20476;-76
2023/04/29 05:14:07;;;;;;;;;;;;;;;;;;5047578;28;19925;-76
2023/04/29 05:16:34;;;;;;;;;;;;;;;;;;5050170;28;19943;-77
2023/04/29 05:19:01;;;;;;;;;;;;;;;;;;5050889;28;19933;-80
2023/04/29 05:21:32;;;;;;;;;;;;;;;;;;5058038;28;19931;-78
2023/04/29 05:24:00;;;;;;;;;;;;;;;;;;5051757;28;19932;-79
2023/04/29 05:26:27;;;;;;;;;;;;;;;;;;5052141;28;19925;-79
2023/04/29 05:28:57;;;;;;;;;;;;;;;;;;5050454;28;19932;-79
2023/04/29 05:31:24;;;;;;;;;;;;;;;;;;5060290;28;19929;-78
2023/04/29 05:33:52;;;;;;;;;;;10.60;99.90;;;;;;5048545;28;19982;-77
2023/04/29 05:36:19;;;;;;;;;;;10.70;99.90;;;;;;5036666;28;20012;-77
2023/04/29 05:38:46;;;;;;;;;;;10.70;99.90;;;;;;5030801;28;19924;-77
2023/04/29 05:41:14;;;;;;;;;;;;;;;;;;5034712;28;19939;-78
2023/04/29 05:43:45;;;;;;;;;;;10.60;99.90;;;;;;5055024;28;19932;-76
2023/04/29 05:46:15;;;;;;;;;;;;;;;;;;5067362;28;20019;-75
2023/04/29 05:48:42;;;;;;;;;;;;;;;;;;5060083;28;19933;-76
2023/04/29 05:51:11;;;;;;;;;;;;;;;;;;5059269;28;19928;-79
2023/04/29 05:53:39;;;;;;;;;;;;;;;;;;5065642;28;19928;-79
2023/04/29 05:56:08;;;;;;;;;;;10.60;99.90;;;;;;5048085;28;19931;-78
2023/04/29 05:58:36;;;;;;;;;;;;;;;;;;5049049;28;19954;-78
2023/04/29 06:01:03;;;;;;;;;;;;;;;;;;5054853;28;19925;-79
2023/04/29 06:03:31;;;;;;;;;;;10.70;99.90;;;;;;5046367;28;19960;-75
2023/04/29 06:06:29;;;;;;;;;;;10.70;99.90;;;;;;5062904;28;19933;-75
2023/04/29 06:09:24;;;;;;;;;;;;;;;;;;5033685;28;19928;-76
2023/04/29 06:11:51;;;;;;;;;;;;;;;;;;5049747;28;19981;-76
2023/04/29 06:14:20;;;;;;;;;;;;;;;;;;5057251;28;21386;-76
2023/04/29 06:16:48;;;;;;;;;;;10.70;99.90;;;;;;5074059;28;19932;-76
2023/04/29 06:19:16;;;;;;;;;;;;;;;;;;5067125;28;20027;-75
2023/04/29 06:21:43;;;;;;;;;;;;;;;;;;5061127;28;19933;-76
2023/04/29 06:24:10;;;;;;;;;;;;;;;;;;5039318;28;19928;-76
2023/04/29 06:26:37;;;;;;;;;;;;;;;;;;5050633;28;19963;-75
2023/04/29 06:29:04;;;;;;;;;;;;;;;;;;5039886;28;19928;-75
2023/04/29 06:31:32;;;;;;;;;;;;;;;;;;5036561;28;19940;-75
2023/04/29 06:34:04;;;;;;;;;;;10.90;99.90;;;;;;5057481;28;19938;-75
2023/04/29 06:36:32;;;;;;;;;;;;;;;;;;5045498;28;20687;-75
2023/04/29 06:39:38;;;;;;;;;;;;;;;;;;5001042;28;19948;-75
2023/04/29 06:42:37;;;;;;;;;;;11.00;99.90;;;;;;5000402;28;20752;-75
2023/04/29 06:45:24;;;;;;;;;;;;;;;;;;5046662;28;19940;-75
2023/04/29 06:48:08;;;;;;;;;;;;;;;;;;5037346;28;20019;-75
2023/04/29 06:50:44;;;;;;;;;;;;;;;;;;5034554;28;19933;-75
2023/04/29 06:53:11;;;;;;;;;;;;;;;;;;5059451;28;19935;-75
2023/04/29 06:55:38;;;;;;;;;;;;;;;;;;5057603;28;20672;-75
2023/04/29 06:58:05;;;;;;;;;;;;;;;;;;5042750;28;20388;-75
2023/04/29 07:00:33;;;;;;;;;;;;;;;;;;5062344;28;20027;-77
2023/04/29 07:03:00;;;;;;;;;;;;;;;;;;5063127;28;19932;-76
2023/04/29 07:05:38;;;;;;;;;;;;;;;;;;5062753;28;20643;-76
2023/04/29 07:08:08;;;;;;;;;;;11.20;99.90;;;;;;5066318;28;19933;-76
2023/04/29 07:10:36;;;;;;;;;;;;;;;;;;5068654;28;20408;-75
2023/04/29 07:13:03;;;;;;;;;;;;;;;;;;5044483;28;19975;-75
2023/04/29 07:15:30;;;;;;;;;;;;;;;;;;5072863;28;19946;-76
2023/04/29 07:17:57;;;;;;;;;;;11.50;99.90;;;;;;5050939;28;19929;-76
2023/04/29 07:20:26;;;;;;;;;;;;;;;;;;5067918;28;19929;-76
2023/04/29 07:22:53;;;;;;;;;;;;;;;;;;5050173;28;20016;-75
2023/04/29 07:25:20;;;;;;;;;;;;;;;;;;5077064;28;19928;-77
2023/04/29 07:27:47;;;;;;;;;;;;;;;;;;5064855;28;20483;-79
2023/04/29 07:30:14;;;;;;;;;;;;;;;;;;5071345;28;19977;-79
2023/04/29 07:32:41;;;;;;;;;;;;;;;;;;5057172;28;19936;-77
2023/04/29 07:35:08;;;;;;;;;;;;;;;;;;5063618;28;19925;-79
2023/04/29 07:37:37;;;;;;;;;;;11.80;99.90;;;;;;5045561;28;20028;-77
2023/04/29 07:40:05;;;;;;;;;;;;;;;;;;5047784;28;19940;-76
2023/04/29 07:42:32;;;;;;;;;;;;;;;;;;5049377;28;19974;-76
2023/04/29 07:45:00;;;;;;;;;;;;;;;;;;5049985;28;20382;-78
2023/04/29 07:47:27;;;;;;;;;;;;;;;;;;5066849;28;19943;-78
2023/04/29 07:49:54;;;;;;;;;;;;;;;;;;5057100;28;19983;-76
2023/04/29 07:52:20;;;;;;;;;;;11.50;99.90;;;;;;5065870;28;19935;-76
2023/04/29 07:54:49;;;;;;;;;;;;;;;;;;5072837;28;19928;-76
2023/04/29 07:57:17;;;;;;;;;;;11.50;99.90;;;;;;5080040;28;19924;-76
2023/04/29 07:59:44;;;;;;;;;;;;;;;;;;5068086;28;19975;-77
2023/04/29 08:02:12;;;;;;;;;;;;;;;;;;5050652;28;19933;-75
2023/04/29 08:04:40;;;;;;;;;;;;;;;;;;5042631;28;19929;-75
2023/04/29 08:07:10;;;;;;;;;;;;;;;;;;5038784;28;19929;-74
2023/04/29 08:09:36;;;;;;;;;;;11.40;99.90;;;;;;5060932;28;20278;-75
2023/04/29 08:12:04;;;;;;;;;;;;;;;;;;5054512;28;19928;-75
2023/04/29 08:14:32;;;;;;;;;;;;;;;;;;5070439;28;19983;-75
2023/04/29 08:17:00;;;;;;;;;;;;;;;;;;5052072;28;20350;-75
2023/04/29 08:19:27;;;;;;;;;;;;;;;;;;5050171;28;19924;-75
2023/04/29 08:21:54;;;;;;;;;;;;;;;;;;5044105;28;20442;-75
2023/04/29 08:24:22;;;;;;;;;;;11.50;99.90;;;;;;5061845;28;19925;-76
2023/04/29 08:26:50;;;;;;;;;;;;;;;;;;5069621;28;19977;-76
2023/04/29 08:29:16;;;;;;;;;;;11.50;99.90;;;;;;5066078;28;20015;-75
2023/04/29 08:31:43;;;;;;;;;;;11.50;99.90;;;;;;5053580;28;19925;-77
2023/04/29 08:34:10;;;;;;;;;;;11.60;99.90;;;;;;5040057;28;20291;-78
2023/04/29 08:36:37;;;;;;;;;;;;;;;;;;5063255;28;19924;-77
2023/04/29 08:39:04;;;;;;;;;;;;;;;;;;5058456;28;20580;-77
2023/04/29 08:41:32;;;;;;;;;;;;;;;;;;5070215;28;19928;-77
2023/04/29 08:44:00;;;;;;;;;;;11.70;99.90;;;;;;5070550;28;19928;-77
2023/04/29 08:46:27;;;;;;;;;;;;;;;;;;5053970;28;19925;-78
2023/04/29 08:48:56;;;;;;;;;;;11.70;99.90;;;;;;5184507;22;20126;-79
2023/04/29 08:51:23;;;;;;;;;;;;;;;;;;5097619;28;19958;-80
2023/04/29 08:53:50;;;;;;;;;;;11.70;99.90;;;;;;5080659;28;20311;-80
2023/04/29 08:56:20;;;;;;;;;;;;;;;;;;5077404;28;19946;-80
2023/04/29 08:58:50;;;;;;;;;;;11.70;99.90;;;;;;5078760;28;19924;-80
2023/04/29 09:01:19;;;;;;;;;;;11.80;99.90;;;;;;5095358;28;20039;-79
2023/04/29 09:03:46;;;;;;;;;;;;;;;;;;5080471;28;19947;-81
2023/04/29 09:06:13;;;;;;;;;;;;;;;;;;5079984;28;20036;-81
2023/04/29 09:08:40;;;;;;;;;;;;;;;;;;5078766;28;19990;-80
2023/04/29 09:11:09;;;;;;;;;;;;;;;;;;5078462;28;19930;-79
2023/04/29 09:13:36;;;;;;;;;;;;;;;;;;5077313;28;20093;-81
2023/04/29 09:16:04;;;;;;;;;;;12.00;99.90;;;;;;5078489;28;19924;-80
2023/04/29 09:18:32;;;;;;;;;;;;;;;;;;5091079;28;19928;-80
2023/04/29 09:20:59;;;;;;;;;;;;;;;;;;5078226;28;19963;-80
2023/04/29 09:23:36;;;;;;;;;;;12.10;99.90;;;;;;5078712;28;20361;-81
2023/04/29 09:26:03;;;;;;;;;;;;;;;;;;5077534;28;20414;-80
2023/04/29 09:28:30;;;;;;;;;;;12.00;99.90;;;;;;5097017;28;20495;-80
2023/04/29 09:30:57;;;;;;;;;;;;;;;;;;5096539;28;20042;-80
2023/04/29 09:33:27;;;;;;;;;;;11.90;99.90;;;;;;5077167;28;20358;-81
2023/04/29 09:35:55;;;;;;;;;;;11.90;99.90;;;;;;5093013;28;19924;-81
2023/04/29 09:38:22;;;;;;;;;;;;;;;;;;5097310;28;19924;-81
2023/04/29 09:40:52;;;;;;;;;;;12.10;99.90;;;;;;5078246;28;19935;-81
2023/04/29 09:43:20;;;;;;;;;;;;;;;;;;5096458;28;19927;-80
2023/04/29 09:45:47;;;;;;;;;;;;;;;;;;5094973;28;19939;-80
2023/04/29 09:48:15;;;;;;;;;;;12.30;99.90;;;;;;5076958;28;20052;-80
2023/04/29 09:50:42;;;;;;;;;;;12.30;99.90;;;;;;5095809;28;19956;-80
2023/04/29 09:53:10;;;;;;;;;;;12.30;99.90;;;;;;5096008;28;19928;-80
2023/04/29 09:55:37;;;;;;;;;;;;;;;;;;5095139;28;20036;-80
2023/04/29 09:58:05;;;;;;;;;;;;;;;;;;5098531;28;20057;-81
2023/04/29 10:00:33;;;;;;;;;;;;;;;;;;5081217;28;19935;-81
2023/04/29 10:03:00;;;;;;;;;;;;;;;;;;5077588;28;20419;-81
2023/04/29 10:05:30;;;;;;;;;;;13.30;99.90;;;;;;5076721;28;20061;-80
2023/04/29 10:07:57;;;;;;;;;;;;;;;;;;5076950;28;19931;-81
2023/04/29 10:10:24;;;;;;;;;;;;;;;;;;5078824;28;19982;-81
2023/04/29 10:12:53;;;;;;;;;;;14.10;99.90;;;;;;5079666;28;20473;-81
2023/04/29 10:15:20;;;;;;;;;;;;;;;;;;5096067;28;20286;-81
2023/04/29 10:17:48;;;;;;;;;;;;;;;;;;5095414;28;19978;-81
2023/04/29 10:20:19;;;;;;;;;;;14.60;99.90;;;;;;5090414;28;20110;-81
2023/04/29 10:22:46;;;;;;;;;;;;;;;;;;5091751;28;19924;-81
2023/04/29 10:25:13;;;;;;;;;;;;;;;;;;5076690;28;19932;-81
2023/04/29 10:27:43;;;;;;;;;;;15.00;99.90;;;;;;5077023;28;19924;-81
2023/04/29 10:30:10;;;;;;;;;;;;;;;;;;5091866;28;19967;-81
2023/04/29 10:32:37;;;;;;;;;;;;;;;;;;5078002;28;20385;-81
2023/04/29 10:35:04;;;;;;;;;;;;;;;;;;5076623;28;20471;-81
2023/04/29 10:37:31;;;;;;;;;;;;;;;;;;5077457;28;20389;-81
2023/04/29 10:39:58;;;;;;;;;;;;;;;;;;5078914;28;19946;-81
2023/04/29 10:42:26;;;;;;;;;;;;;;;;;;5078017;28;19975;-81
2023/04/29 10:44:53;;;;;;;;;;;;;;;;;;5076860;28;20362;-81
2023/04/29 10:47:20;;;;;;;;;;;;;;;;;;5075853;28;19932;-81
2023/04/29 10:49:47;;;;;;;;;;;;;;;;;;5068972;28;19950;-81
2023/04/29 10:52:15;;;;;;;;;;;;;;;;;;5078580;28;19932;-81
2023/04/29 10:54:42;;;;;;;;;;;;;;;;;;5074789;28;20413;-82
2023/04/29 10:57:20;;;;;;;;;;;17.50;99.90;;;;;;5094311;28;19992;-81
2023/04/29 10:59:47;;;;;;;;;;;;;;;;;;5074030;28;20010;-81
2023/04/29 11:02:14;;;;;;;;;;;;;;;;;;5076621;28;19932;-82
2023/04/29 11:04:41;;;;;;;;;;;;;;;;;;5078222;28;19939;-81
2023/04/29 11:07:08;;;;;;;;;;;18.20;99.90;;;;;;5093920;28;19962;-82
2023/04/29 11:09:37;;;;;;;;;;;;;;;;;;5073329;28;19954;-81
2023/04/29 11:12:05;;;;;;;;;;;;;;;;;;5091565;28;20035;-82
2023/04/29 11:14:33;;;;;;;;;;;;;;;;;;5072597;28;20376;-82
2023/04/29 11:17:00;;;;;;;;;;;;;;;;;;5077088;28;19924;-82
2023/04/29 11:19:27;;;;;;;;;;;;;;;;;;5091091;28;19936;-82
2023/04/29 11:22:10;;;;;;;;;;;18.80;99.90;;;;;;5074379;28;19928;-79
2023/04/29 11:24:37;;;;;;;;;;;;;;;;;;5078388;28;20405;-81
2023/04/29 11:27:05;;;;;;;;;;;;;;;;;;5071686;28;19947;-80
2023/04/29 11:29:32;;;;;;;;;;;;;;;;;;5101033;28;20137;-84
2023/04/29 11:31:59;;;;;;;;;;;;;;;;;;5103011;28;20391;-82
2023/04/29 11:34:28;;;;;;;;;;;20.60;99.90;;;;;;5081469;28;19924;-79
2023/04/29 11:36:55;;;;;;;;;;;;;;;;;;5077747;28;20353;-80
2023/04/29 11:39:25;;;;;;;;;;;20.60;99.90;;;;;;5081164;28;19924;-83
2023/04/29 11:41:52;;;;;;;;;;;;;;;;;;5083048;28;20390;-82
2023/04/29 11:44:19;;;;;;;;;;;;;;;;;;5095311;28;19966;-80
2023/04/29 11:46:48;;;;;;;;;;;;;;;;;;5098472;28;19995;-81
2023/04/29 11:49:15;;;;;;;;;;;20.80;99.90;;;;;;5073707;28;19946;-80
2023/04/29 11:51:43;;;;;;;;;;;;;;;;;;5079462;28;19955;-82
2023/04/29 11:54:10;;;;;;;;;;;;;;;;;;5072934;28;20013;-82
2023/04/29 11:56:39;;;;;;;;;;;21.30;99.90;;;;;;5089566;28;19939;-81
2023/04/29 11:59:07;;;;;;;;;;;;;;;;;;5074574;28;20006;-80
2023/04/29 12:01:37;;;;;;;;;;;;;;;;;;5096318;28;19970;-82
2023/04/29 12:04:05;;;;;;;;;;;20.50;99.90;;;;;;5077471;28;20362;-83
2023/04/29 12:06:33;;;;;;;;;;;;;;;;;;5086262;28;19924;-83
2023/04/29 12:09:03;;;;;;;;;;;;;;;;;;5081064;28;20064;-82
2023/04/29 12:11:30;;;;;;;;;;;20.10;99.90;;;;;;5101014;28;19932;-84
2023/04/29 12:14:01;;;;;;;;;;;20.20;99.90;;;;;;5089593;28;19932;-82
2023/04/29 12:16:29;;;;;;;;;;;20.50;99.90;;;;;;5098507;28;19924;-82
2023/04/29 12:18:56;;;;;;;;;;;;;;;;;;5082122;28;19924;-82
2023/04/29 12:21:23;;;;;;;;;;;20.50;99.90;;;;;;5098885;28;19924;-83
2023/04/29 12:23:50;;;;;;;;;;;20.50;99.90;;;;;;5087238;28;19932;-83
2023/04/29 12:26:19;;;;;;;;;;;20.40;99.90;;;;;;5098688;28;19932;-83
2023/04/29 12:28:46;;;;;;;;;;;;;;;;;;5083490;28;19948;-82
2023/04/29 12:31:14;;;;;;;;;;;;;;;;;;5075734;28;19928;-82
2023/04/29 12:33:43;;;;;;;;;;;;;;;;;;5074293;28;19939;-82
2023/04/29 12:36:10;;;;;;;;;;;;;;;;;;5099750;28;20019;-83
2023/04/29 12:38:38;;;;;;;;;;;20.40;99.90;;;;;;5080552;28;19992;-82
2023/04/29 12:41:06;;;;;;;;;;;;;;;;;;5080530;28;19932;-85
2023/04/29 12:43:33;;;;;;;;;;;19.60;99.90;;;;;;5097015;28;20395;-85
2023/04/29 12:46:02;;;;;;;;;;;19.30;99.90;;;;;;5089486;28;19928;-85
2023/04/29 12:48:29;;;;;;;;;;;18.90;99.90;;;;;;5106569;28;19952;-85
2023/04/29 12:51:00;;;;;;;;;;;;;;;;;;5088081;28;19982;-85
2023/04/29 12:53:27;;;;;;;;;;;;;;;;;;5082817;28;20019;-85
2023/04/29 12:55:58;;;;;;;;;;;18.00;99.90;;;;;;5103707;28;19932;-83
2023/04/29 12:58:25;;;;;;;;;;;;;;;;;;5107646;28;19954;-84
2023/04/29 13:00:52;;;;;;;;;;;;;;;;;;5117104;28;19928;-85
2023/04/29 13:03:20;;;;;;;;;;;;;;;;;;5091368;28;19960;-85
2023/04/29 13:05:50;;;;;;;;;;;17.60;99.90;;;;;;5090286;28;19924;-83
2023/04/29 13:08:17;;;;;;;;;;;17.40;99.90;;;;;;5090862;28;20010;-84
2023/04/29 13:10:44;;;;;;;;;;;;;;;;;;5078199;28;19952;-84
2023/04/29 13:13:12;;;;;;;;;;;17.80;99.90;;;;;;5094494;28;19932;-85
2023/04/29 13:15:39;;;;;;;;;;;18.10;99.90;;;;;;5092734;28;19925;-84
2023/04/29 13:18:09;;;;;;;;;;;18.20;99.90;;;;;;5084253;28;20019;-81
2023/04/29 13:20:36;;;;;;;;;;;18.40;99.90;;;;;;5068037;28;19936;-81
2023/04/29 13:23:03;;;;;;;;;;;18.50;99.90;;;;;;5089597;28;19935;-81
2023/04/29 13:25:30;;;;;;;;;;;18.70;99.90;;;;;;5067919;28;20310;-82
2023/04/29 13:27:57;;;;;;;;;;;;;;;;;;5075303;28;20312;-82
2023/04/29 13:30:25;;;;;;;;;;;;;;;;;;5084107;28;19928;-81
2023/04/29 13:32:52;;;;;;;;;;;;;;;;;;5081909;28;19925;-81
2023/04/29 13:35:20;;;;;;;;;;;18.70;99.90;;;;;;5063847;28;20295;-80
2023/04/29 13:37:48;;;;;;;;;;;18.60;99.90;;;;;;5067228;28;19974;-80
2023/04/29 13:40:15;;;;;;;;;;;;;;;;;;5075070;28;19978;-80
2023/04/29 13:42:42;;;;;;;;;;;;;;;;;;5093124;28;19912;-80
2023/04/29 13:45:09;;;;;;;;;;;;;;;;;;5087929;28;19928;-80
2023/04/29 13:47:36;;;;;;;;;;;;;;;;;;5078488;28;20018;-80
2023/04/29 13:50:04;;;;;;;;;;;;;;;;;;5074191;28;19943;-81
2023/04/29 13:52:31;;;;;;;;;;;;;;;;;;5091129;28;19954;-80
2023/04/29 13:54:58;;;;;;;;;;;;;;;;;;5076950;28;20252;-80
2023/04/29 13:57:26;;;;;;;;;;;;;;;;;;5076799;28;19978;-80
2023/04/29 13:59:54;;;;;;;;;;;;;;;;;;5076726;28;19947;-80
2023/04/29 14:02:21;;;;;;;;;;;;;;;;;;5076507;28;20424;-80
2023/04/29 14:04:48;;;;;;;;;;;;;;;;;;5088072;28;19928;-80
2023/04/29 14:07:16;;;;;;;;;;;;;;;;;;5081834;28;19927;-81
2023/04/29 14:09:43;;;;;;;;;;;;;;;;;;5086493;28;19993;-80
2023/04/29 14:12:10;;;;;;;;;;;;;;;;;;5082675;28;19925;-82
2023/04/29 14:14:37;;;;;;;;;;;;;;;;;;5075150;28;20216;-80
2023/04/29 14:17:05;;;;;;;;;;;;;;;;;;5076179;28;19929;-80
2023/04/29 14:19:34;;;;;;;;;;;;;;;;;;5091189;28;19928;-80
2023/04/29 14:22:01;;;;;;;;;;;;;;;;;;5078333;28;19978;-81
2023/04/29 14:24:29;;;;;;;;;;;18.80;99.90;;;;;;5078063;28;20477;-81
2023/04/29 14:26:58;;;;;;;;;;;;;;;;;;5092952;28;20083;-81
2023/04/29 14:29:25;;;;;;;;;;;;;;;;;;5066621;28;19928;-80
2023/04/29 14:31:52;;;;;;;;;;;;;;;;;;5078377;28;19932;-80
2023/04/29 14:34:19;;;;;;;;;;;;;;;;;;5071779;28;19928;-81
2023/04/29 14:36:47;;;;;;;;;;;;;;;;;;5078897;28;20395;-81
2023/04/29 14:39:13;;;;;;;;;;;20.10;99.90;;;;;;5065303;28;19932;-82
2023/04/29 14:41:41;;;;;;;;;;;;;;;;;;5076126;28;19932;-81
2023/04/29 14:44:12;;;;;;;;;;;20.30;99.90;;;;;;5085752;28;19932;-81
2023/04/29 14:46:42;;;;;;;;;;;;;;;;;;5079665;28;19929;-82
2023/04/29 14:49:09;;;;;;;;;;;;;;;;;;5087561;28;20026;-78
2023/04/29 14:51:37;;;;;;;;;;;;;;;;;;5088375;28;20411;-83
2023/04/29 14:54:03;;;;;;;;;;;19.90;99.90;;;;;;5088974;28;19981;-82
2023/04/29 14:56:31;;;;;;;;;;;19.90;99.90;;;;;;5089341;28;20441;-82
2023/04/29 14:58:58;;;;;;;;;;;;;;;;;;5096721;28;19959;-83
2023/04/29 15:01:27;;;;;;;;;;;19.50;99.90;;;;;;5095301;28;19912;-82
2023/04/29 15:03:55;;;;;;;;;;;19.40;99.90;;;;;;5086642;28;19958;-82
2023/04/29 15:06:22;;;;;;;;;;;;;;;;;;5076360;28;19928;-82
2023/04/29 15:08:49;;;;;;;;;;;19.50;99.90;;;;;;5089392;28;19924;-82
2023/04/29 15:11:16;;;;;;;;;;;;;;;;;;5063243;28;19986;-82
2023/04/29 15:13:43;;;;;;;;;;;19.60;99.90;;;;;;5081382;28;20069;-84
2023/04/29 15:16:11;;;;;;;;;;;;;;;;;;5085263;28;20322;-82
2023/04/29 15:18:38;;;;;;;;;;;;;;;;;;5081305;28;19985;-82
2023/04/29 15:21:06;;;;;;;;;;;19.50;99.90;;;;;;5099896;28;20445;-82
2023/04/29 15:23:33;;;;;;;;;;;;;;;;;;5099644;28;19948;-82
2023/04/29 15:26:01;;;;;;;;;;;;;;;;;;5099129;28;20375;-82
2023/04/29 15:28:29;;;;;;;;;;;;;;;;;;5083412;28;20001;-83
2023/04/29 15:30:58;;;;;;;;;;;20.10;99.90;;;;;;5084971;28;19924;-82
2023/04/29 15:33:25;;;;;;;;;;;18.40;99.90;;;;;;5084166;28;19939;-83
2023/04/29 15:35:53;;;;;;;;;;;;;;;;;;5101408;28;19924;-84
2023/04/29 15:38:20;;;;;;;;;;;;;;;;;;5083650;28;19989;-83
2023/04/29 15:40:47;;;;;;;;;;;;;;;;;;5082598;28;19974;-84
2023/04/29 15:43:14;;;;;;;;;;;;;;;;;;5072882;28;19936;-84
2023/04/29 15:45:44;;;;;;;;;;;20.70;99.90;;;;;;5082732;28;19970;-82
2023/04/29 15:48:11;;;;;;;;;;;;;;;;;;5096658;28;20030;-84
2023/04/29 15:50:38;;;;;;;;;;;20.40;99.90;;;;;;5096347;28;19923;-83
2023/04/29 15:53:05;;;;;;;;;;;20.30;99.90;;;;;;5106594;28;19932;-84
2023/04/29 15:55:33;;;;;;;;;;;20.30;99.90;;;;;;5083788;28;19924;-83
2023/04/29 15:58:01;;;;;;;;;;;;;;;;;;5101240;28;19987;-83
2023/04/29 16:03:00;;;;;;;;;;;20.00;99.90;;;;;;5085614;28;19920;-82
2023/04/29 16:05:30;;;;;;;;;;;;;;;;;;5085976;28;19932;-82
2023/04/29 16:07:57;;;;;;;;;;;;;;;;;;5100309;28;19988;-83
2023/04/29 16:10:25;;;;;;;;;;;;;;;;;;5082234;28;20043;-83